createdAt,value
2023-01-11T00:00:50.088Z,2.60
2023-01-11T00:03:20.326Z,2.49
2023-01-11T00:05:50.537Z,3.53
2023-01-11T00:08:22.445Z,3.46
2023-01-11T00:10:53.107Z,2.84
2023-01-11T00:13:23.140Z,3.16
2023-01-11T00:15:54.298Z,3.44
2023-01-11T00:18:24.549Z,3.28
2023-01-11T00:20:54.129Z,2.43
2023-01-11T00:23:24.049Z,3.19
2023-01-11T00:25:53.734Z,2.57
2023-01-11T00:28:23.139Z,2.58
2023-01-11T00:30:54.275Z,3.15
2023-01-11T00:33:24.489Z,3.57
2023-01-11T00:35:54.800Z,2.68
2023-01-11T00:38:42.876Z,2.92
2023-01-11T00:41:27.450Z,2.55
2023-01-11T00:44:15.064Z,3.33
2023-01-11T00:47:04.688Z,3.21
2023-01-11T00:49:34.779Z,3.01
2023-01-11T00:52:09.326Z,2.63
2023-01-11T00:54:39.880Z,2.82
2023-01-11T00:57:10.405Z,3.12
2023-01-11T00:59:41.129Z,2.56
2023-01-11T01:02:13.281Z,2.98
2023-01-11T01:04:43.849Z,2.77
2023-01-11T01:07:13.937Z,3.11
2023-01-11T01:09:44.073Z,2.98
2023-01-11T01:12:34.877Z,3.09
2023-01-11T01:15:04.442Z,3.07
2023-01-11T01:17:36.061Z,2.95
2023-01-11T01:20:07.113Z,2.85
2023-01-11T01:22:37.095Z,3.14
2023-01-11T01:25:07.582Z,1.89
2023-01-11T01:27:37.818Z,2.46
2023-01-11T01:30:09.534Z,2.80
2023-01-11T01:32:40.717Z,2.96
2023-01-11T01:35:12.160Z,2.75
2023-01-11T01:37:42.675Z,2.69
2023-01-11T01:40:14.503Z,3.12
2023-01-11T01:42:45.169Z,2.09
2023-01-11T01:45:24.306Z,2.52
2023-01-11T01:47:59.213Z,2.18
2023-01-11T01:50:32.336Z,2.59
2023-01-11T01:53:04.633Z,2.95
2023-01-11T01:55:37.289Z,2.61
2023-01-11T01:58:10.657Z,2.35
2023-01-11T02:00:41.704Z,2.12
2023-01-11T02:03:13.978Z,1.88
2023-01-11T02:05:43.443Z,2.30
2023-01-11T02:08:18.614Z,2.14
2023-01-11T02:10:48.403Z,1.67
2023-01-11T02:13:18.659Z,2.06
2023-01-11T02:16:08.163Z,2.31
2023-01-11T02:18:40.369Z,2.55
2023-01-11T02:21:23.938Z,2.89
2023-01-11T02:24:06.246Z,2.69
2023-01-11T02:27:00.819Z,2.25
2023-01-11T02:29:51.735Z,1.89
2023-01-11T02:32:28.109Z,2.16
2023-01-11T02:35:04.970Z,2.19
2023-01-11T02:37:40.097Z,2.26
2023-01-11T02:40:16.129Z,2.13
2023-01-11T02:43:09.908Z,2.76
2023-01-11T02:45:49.341Z,2.65
2023-01-11T02:48:24.929Z,2.64
2023-01-11T02:51:00.549Z,2.47
2023-01-11T02:53:34.733Z,1.96
2023-01-11T02:56:08.574Z,1.78
2023-01-11T02:58:40.875Z,1.78
2023-01-11T03:01:12.193Z,1.78
2023-01-11T03:03:41.896Z,1.86
2023-01-11T03:06:17.419Z,2.06
2023-01-11T03:09:16.633Z,2.49
2023-01-11T03:12:14.855Z,2.07
2023-01-11T03:14:52.817Z,2.63
2023-01-11T03:17:40.198Z,2.27
2023-01-11T03:20:13.296Z,2.41
2023-01-11T03:22:52.016Z,1.97
2023-01-11T03:25:25.519Z,2.25
2023-01-11T03:27:59.825Z,1.76
2023-01-11T03:30:36.612Z,1.94
2023-01-11T03:33:12.383Z,2.66
2023-01-11T03:35:45.792Z,2.58
2023-01-11T03:38:19.623Z,2.26
2023-01-11T03:40:51.593Z,2.68
2023-01-11T03:43:22.696Z,2.47
2023-01-11T03:45:56.204Z,2.09
2023-01-11T03:48:32.711Z,2.27
2023-01-11T03:51:03.879Z,2.19
2023-01-11T03:53:37.253Z,1.90
2023-01-11T03:56:11.008Z,2.35
2023-01-11T03:58:40.961Z,2.53
2023-01-11T04:01:11.287Z,1.90
2023-01-11T04:03:42.943Z,1.39
2023-01-11T04:06:13.894Z,2.21
2023-01-11T04:08:43.955Z,2.64
2023-01-11T04:11:13.878Z,2.69
2023-01-11T04:13:43.938Z,2.33
2023-01-11T04:16:14.202Z,2.13
2023-01-11T04:18:46.038Z,2.29
2023-01-11T04:21:16.311Z,1.97
2023-01-11T04:23:46.780Z,2.03
2023-01-11T04:26:17.832Z,1.56
2023-01-11T04:28:47.595Z,1.54
2023-01-11T04:31:18.083Z,1.83
2023-01-11T04:33:49.194Z,1.70
2023-01-11T04:36:19.333Z,1.56
2023-01-11T04:38:49.113Z,1.51
2023-01-11T04:41:36.499Z,1.59
2023-01-11T04:44:06.788Z,1.50
2023-01-11T04:46:36.759Z,2.00
2023-01-11T04:49:08.045Z,1.44
2023-01-11T04:51:38.257Z,1.24
2023-01-11T04:54:08.770Z,1.90
2023-01-11T04:56:38.759Z,1.74
2023-01-11T04:59:08.373Z,1.40
2023-01-11T05:01:38.674Z,1.29
2023-01-11T05:04:12.660Z,1.09
2023-01-11T05:06:43.587Z,1.52
2023-01-11T05:09:15.053Z,1.69
2023-01-11T05:11:45.436Z,1.82
2023-01-11T05:14:15.209Z,1.98
2023-01-11T05:16:45.378Z,1.42
2023-01-11T05:19:17.181Z,1.63
2023-01-11T05:21:47.449Z,1.52
2023-01-11T05:24:18.126Z,1.48
2023-01-11T05:26:50.310Z,2.23
2023-01-11T05:29:21.216Z,1.52
2023-01-11T05:31:51.595Z,1.69
2023-01-11T05:34:23.138Z,1.41
2023-01-11T05:36:52.964Z,1.43
2023-01-11T05:39:24.325Z,1.37
2023-01-11T05:41:54.049Z,1.69
2023-01-11T05:44:41.417Z,1.24
2023-01-11T05:47:11.369Z,1.29
2023-01-11T05:49:42.757Z,1.64
2023-01-11T05:52:13.108Z,1.77
2023-01-11T05:54:43.797Z,1.01
2023-01-11T05:57:14.573Z,1.50
2023-01-11T05:59:44.755Z,1.38
2023-01-11T06:02:14.633Z,1.71
2023-01-11T06:04:46.911Z,2.07
2023-01-11T06:07:16.657Z,1.85
2023-01-11T06:09:47.273Z,1.66
2023-01-11T06:12:17.247Z,1.58
2023-01-11T06:14:47.479Z,1.64
2023-01-11T06:17:17.350Z,1.53
2023-01-11T06:19:49.878Z,0.96
2023-01-11T06:22:19.564Z,1.87
2023-01-11T06:24:49.836Z,1.75
2023-01-11T06:27:19.702Z,1.59
2023-01-11T06:29:50.145Z,1.44
2023-01-11T06:32:20.207Z,0.58
2023-01-11T06:34:52.179Z,0.80
2023-01-11T06:37:22.416Z,1.15
2023-01-11T06:39:53.102Z,1.19
2023-01-11T06:42:22.948Z,1.51
2023-01-11T06:44:52.902Z,1.89
2023-01-11T06:47:23.368Z,1.59
2023-01-11T06:49:54.662Z,1.00
2023-01-11T06:52:24.984Z,1.59
2023-01-11T06:54:54.652Z,1.65
2023-01-11T06:57:24.864Z,0.89
2023-01-11T06:59:54.857Z,0.83
2023-01-11T07:02:25.248Z,0.98
2023-01-11T07:04:57.113Z,1.91
2023-01-11T07:07:26.884Z,1.60
2023-01-11T07:09:57.140Z,1.41
2023-01-11T07:12:26.957Z,1.97
2023-01-11T07:14:56.343Z,1.80
2023-01-11T07:17:25.773Z,1.85
2023-01-11T07:19:57.468Z,1.92
2023-01-11T07:22:27.283Z,1.81
2023-01-11T07:24:56.913Z,1.86
2023-01-11T07:27:27.228Z,2.39
2023-01-11T07:30:00.236Z,1.64
2023-01-11T07:32:30.244Z,2.05
2023-01-11T07:35:01.856Z,2.06
2023-01-11T07:37:33.340Z,1.92
2023-01-11T07:40:03.921Z,2.20
2023-01-11T07:42:51.388Z,1.67
2023-01-11T07:45:21.962Z,1.75
2023-01-11T07:47:53.200Z,1.84
2023-01-11T07:50:24.632Z,2.68
2023-01-11T07:52:54.524Z,2.20
2023-01-11T07:55:25.163Z,2.51
2023-01-11T07:57:57.603Z,2.69
2023-01-11T08:00:28.988Z,3.02
2023-01-11T08:02:59.584Z,2.93
2023-01-11T08:05:31.229Z,3.00
2023-01-11T08:08:00.873Z,3.28
2023-01-11T08:10:30.829Z,2.90
2023-01-11T08:13:17.886Z,2.57
2023-01-11T08:15:48.235Z,2.81
2023-01-11T08:18:19.885Z,3.16
2023-01-11T08:20:54.814Z,3.24
2023-01-11T08:23:26.130Z,3.41
2023-01-11T08:25:59.625Z,3.44
2023-01-11T08:28:30.128Z,2.73
2023-01-11T08:31:00.364Z,2.72
2023-01-11T08:33:30.640Z,2.73
2023-01-11T08:36:06.833Z,2.82
2023-01-11T08:38:36.615Z,2.54
2023-01-11T08:41:11.050Z,2.71
2023-01-11T08:43:41.761Z,2.93
2023-01-11T08:46:12.812Z,3.01
2023-01-11T08:48:42.720Z,3.23
2023-01-11T08:51:14.998Z,3.03
2023-01-11T08:53:45.173Z,3.08
2023-01-11T08:56:15.242Z,3.61
2023-01-11T08:58:45.252Z,3.36
2023-01-11T09:01:14.996Z,3.25
2023-01-11T09:03:45.300Z,3.15
2023-01-11T09:06:19.243Z,3.36
2023-01-11T09:08:49.998Z,3.32
2023-01-11T09:11:37.419Z,3.77
2023-01-11T09:14:08.466Z,3.44
2023-01-11T09:16:38.167Z,4.18
2023-01-11T09:19:08.520Z,4.09
2023-01-11T09:21:39.819Z,4.14
2023-01-11T09:24:09.907Z,4.32
2023-01-11T09:26:41.992Z,4.39
2023-01-11T09:29:12.452Z,4.31
2023-01-11T09:31:42.647Z,3.92
2023-01-11T09:34:13.690Z,4.06
2023-01-11T09:36:47.759Z,4.50
2023-01-11T09:39:20.960Z,4.04
2023-01-11T09:42:07.663Z,4.43
2023-01-11T09:44:51.813Z,4.46
2023-01-11T09:47:36.964Z,4.67
2023-01-11T09:50:13.859Z,4.60
2023-01-11T09:52:47.670Z,4.89
2023-01-11T09:55:24.900Z,4.64
2023-01-11T09:58:29.566Z,4.72
2023-01-11T10:01:07.465Z,4.85
2023-01-11T10:04:06.556Z,4.85
2023-01-11T10:06:45.129Z,4.80
2023-01-11T10:18:33.920Z,4.53
2023-01-11T10:18:48.772Z,4.37
2023-01-11T10:21:16.224Z,4.79
2023-01-11T10:23:50.835Z,4.84
2023-01-11T10:26:32.539Z,4.49
2023-01-11T10:29:22.755Z,4.72
2023-01-11T10:32:34.843Z,5.02
2023-01-11T10:35:48.325Z,4.96
2023-01-11T10:38:44.086Z,5.28
2023-01-11T10:41:26.491Z,4.52
2023-01-11T10:44:12.701Z,4.92
2023-01-11T10:46:46.017Z,4.52
2023-01-11T10:49:34.536Z,4.48
2023-01-11T10:52:21.784Z,4.43
2023-01-11T10:54:56.248Z,4.66
2023-01-11T10:57:39.539Z,4.40
2023-01-11T11:00:36.836Z,4.74
2023-01-11T11:03:24.789Z,4.93
2023-01-11T11:05:59.471Z,4.88
2023-01-11T11:08:33.219Z,4.98
2023-01-11T11:11:08.814Z,5.33
2023-01-11T11:13:49.299Z,5.48
2023-01-11T11:16:34.573Z,5.35
2023-01-11T11:19:05.210Z,5.67
2023-01-11T11:21:39.308Z,5.55
2023-01-11T11:24:16.328Z,5.50
2023-01-11T11:26:49.219Z,5.60
2023-01-11T11:29:29.403Z,5.36
2023-01-11T11:32:02.565Z,5.12
2023-01-11T11:34:33.083Z,5.16
2023-01-11T11:37:02.897Z,5.20
2023-01-11T11:39:34.553Z,5.24
2023-01-11T11:42:10.501Z,5.25
2023-01-11T11:44:40.786Z,5.39
2023-01-11T11:47:18.128Z,5.76
2023-01-11T11:49:48.610Z,5.14
2023-01-11T11:52:20.475Z,5.60
2023-01-11T11:54:56.625Z,5.48
2023-01-11T11:57:29.130Z,5.34
2023-01-11T12:00:05.988Z,5.36
2023-01-11T12:02:47.199Z,5.90
2023-01-11T12:05:18.099Z,5.64
2023-01-11T12:07:55.060Z,5.55
2023-01-11T12:10:27.302Z,5.45
2023-01-11T12:12:58.944Z,5.42
2023-01-11T12:15:30.320Z,5.24
2023-01-11T12:18:26.109Z,5.67
2023-01-11T12:20:56.496Z,5.54
2023-01-11T12:23:28.410Z,5.68
2023-01-11T12:26:22.764Z,5.54
2023-01-11T12:29:37.188Z,6.10
2023-01-11T12:32:24.223Z,6.31
2023-01-11T12:35:26.397Z,5.69
2023-01-11T12:38:08.349Z,5.26
2023-01-11T12:40:47.219Z,5.42
2023-01-11T12:43:34.535Z,5.88
2023-01-11T12:46:10.694Z,5.91
2023-01-11T12:48:55.901Z,6.11
2023-01-11T12:51:39.234Z,6.12
2023-01-11T12:54:28.313Z,5.66
2023-01-11T12:57:09.007Z,6.23
2023-01-11T13:00:03.871Z,6.21
2023-01-11T13:03:13.479Z,6.41
2023-01-11T13:05:54.099Z,6.09
2023-01-11T13:08:32.898Z,5.89
2023-01-11T13:11:12.207Z,6.26
2023-01-11T13:13:53.063Z,5.93
2023-01-11T13:16:27.964Z,5.40
2023-01-11T13:19:02.062Z,5.53
2023-01-11T13:21:34.886Z,6.08
2023-01-11T13:24:10.393Z,6.29
2023-01-11T13:26:42.742Z,6.46
2023-01-11T13:29:16.971Z,6.50
2023-01-11T13:31:48.555Z,6.68
2023-01-11T13:34:22.078Z,6.42
2023-01-11T13:36:55.479Z,6.63
2023-01-11T13:39:31.175Z,6.54
2023-01-11T13:42:05.581Z,6.16
2023-01-11T13:44:39.041Z,6.46
2023-01-11T13:47:11.072Z,6.43
2023-01-11T13:49:51.460Z,6.58
2023-01-11T13:52:24.562Z,6.54
2023-01-11T13:55:03.194Z,6.18
2023-01-11T13:57:38.992Z,6.30
2023-01-11T14:00:20.593Z,6.50
2023-01-11T14:02:54.782Z,6.44
2023-01-11T14:05:25.456Z,6.46
2023-01-11T14:08:09.768Z,6.46
2023-01-11T14:10:49.049Z,6.27
2023-01-11T14:13:51.338Z,6.46
2023-01-11T14:16:26.696Z,6.45
2023-01-11T14:19:01.644Z,6.48
2023-01-11T14:21:40.895Z,5.80
2023-01-11T14:24:12.528Z,5.86
2023-01-11T14:27:02.005Z,6.18
2023-01-11T14:30:00.055Z,6.11
2023-01-11T14:33:00.661Z,5.98
2023-01-11T14:35:53.952Z,6.00
2023-01-11T14:38:42.128Z,5.75
2023-01-11T14:41:37.886Z,5.96
2023-01-11T14:44:19.656Z,5.75
2023-01-11T14:47:08.720Z,6.29
2023-01-11T14:49:53.761Z,6.56
2023-01-11T14:52:39.130Z,6.67
2023-01-11T14:55:18.117Z,6.18
2023-01-11T14:58:06.910Z,6.24
2023-01-11T15:01:15.058Z,5.96
2023-01-11T15:03:58.106Z,5.87
2023-01-11T15:06:33.641Z,5.95
2023-01-11T15:09:04.007Z,6.08
2023-01-11T15:11:39.276Z,6.01
2023-01-11T15:14:26.158Z,6.33
2023-01-11T15:17:15.797Z,6.68
2023-01-11T15:19:49.450Z,6.27
2023-01-11T15:22:28.005Z,6.38
2023-01-11T15:25:01.384Z,6.05
2023-01-11T15:27:35.565Z,6.37
2023-01-11T15:30:09.321Z,6.20
2023-01-11T15:32:41.823Z,6.33
2023-01-11T15:35:37.581Z,6.41
2023-01-11T15:38:14.367Z,6.28
2023-01-11T15:40:46.916Z,6.32
2023-01-11T15:43:50.845Z,6.14
2023-01-11T15:46:54.698Z,5.63
2023-01-11T15:49:45.740Z,5.77
2023-01-11T15:52:53.112Z,5.85
2023-01-11T15:55:58.658Z,5.87
2023-01-11T15:58:58.233Z,6.15
2023-01-11T16:01:29.751Z,5.82
2023-01-11T16:04:06.769Z,5.72
2023-01-11T16:06:45.521Z,5.56
2023-01-11T16:09:46.221Z,5.83
2023-01-11T16:12:57.610Z,6.22
2023-01-11T16:15:38.730Z,6.13
2023-01-11T16:18:16.277Z,5.91
2023-01-11T16:20:57.537Z,5.80
2023-01-11T16:23:28.151Z,5.83
2023-01-11T16:25:59.448Z,5.68
2023-01-11T16:28:30.242Z,5.83
2023-01-11T16:31:02.829Z,6.06
2023-01-11T16:33:35.569Z,6.41
2023-01-11T16:36:14.173Z,6.09
2023-01-11T16:39:02.172Z,6.11
2023-01-11T16:41:36.686Z,6.28
2023-01-11T16:44:09.884Z,6.05
2023-01-11T16:47:09.301Z,5.74
2023-01-11T16:49:40.989Z,5.78
2023-01-11T16:52:38.103Z,5.87
2023-01-11T16:55:40.375Z,6.01
2023-01-11T16:58:22.128Z,6.24
2023-01-11T17:01:00.685Z,5.92
2023-01-11T17:03:31.926Z,5.91
2023-01-11T17:06:16.134Z,5.69
2023-01-11T17:08:47.412Z,5.95
2023-01-11T17:11:27.188Z,5.89
2023-01-11T17:14:11.998Z,5.65
2023-01-11T17:16:43.504Z,5.56
2023-01-11T17:19:17.926Z,5.94
2023-01-11T17:21:54.156Z,5.73
2023-01-11T17:24:26.342Z,5.61
2023-01-11T17:26:58.932Z,5.81
2023-01-11T17:29:31.491Z,5.62
2023-01-11T17:32:03.465Z,5.46
2023-01-11T17:34:35.774Z,5.55
2023-01-11T17:37:10.941Z,5.67
2023-01-11T17:39:45.083Z,5.26
2023-01-11T17:42:33.005Z,5.29
2023-01-11T17:45:15.222Z,5.70
2023-01-11T17:47:47.753Z,5.75
2023-01-11T17:50:30.575Z,5.41
2023-01-11T17:53:16.374Z,5.33
2023-01-11T17:55:54.402Z,5.48
2023-01-11T17:58:28.656Z,5.43
2023-01-11T18:01:20.354Z,5.46
2023-01-11T18:03:52.475Z,5.49
2023-01-11T18:06:28.525Z,5.14
2023-01-11T18:09:00.732Z,5.58
2023-01-11T18:11:32.809Z,5.56
2023-01-11T18:14:05.083Z,5.36
2023-01-11T18:16:35.644Z,5.72
2023-01-11T18:19:25.225Z,5.21
2023-01-11T18:21:56.676Z,5.48
2023-01-11T18:24:34.897Z,5.58
2023-01-11T18:27:24.463Z,5.55
2023-01-11T18:29:55.074Z,5.89
2023-01-11T18:32:25.569Z,5.75
2023-01-11T18:34:56.668Z,5.71
2023-01-11T18:37:26.913Z,5.61
2023-01-11T18:39:59.451Z,5.78
2023-01-11T18:42:32.944Z,5.32
2023-01-11T18:45:02.654Z,5.44
2023-01-11T18:47:32.943Z,5.79
2023-01-11T18:50:02.690Z,5.67
2023-01-11T18:52:33.086Z,5.54
2023-01-11T18:55:04.314Z,5.67
2023-01-11T18:57:34.293Z,5.74
2023-01-11T19:00:04.869Z,5.40
2023-01-11T19:02:42.547Z,5.70
2023-01-11T19:05:15.092Z,5.89
2023-01-11T19:07:45.253Z,5.93
2023-01-11T19:10:19.257Z,5.90
2023-01-11T19:12:49.588Z,5.88
2023-01-11T19:15:20.259Z,5.69
2023-01-11T19:17:49.796Z,5.64
2023-01-11T19:20:20.098Z,5.52
2023-01-11T19:22:50.485Z,5.63
2023-01-11T19:25:23.073Z,5.93
2023-01-11T19:27:54.978Z,5.90
2023-01-11T19:30:24.769Z,5.71
2023-01-11T19:32:55.188Z,5.77
2023-01-11T19:35:25.428Z,5.84
2023-01-11T19:37:56.077Z,5.96
2023-01-11T19:40:27.816Z,5.67
2023-01-11T19:42:58.289Z,5.69
2023-01-11T19:45:27.909Z,5.90
2023-01-11T19:47:58.381Z,5.88
2023-01-11T19:50:28.618Z,5.72
2023-01-11T19:52:58.503Z,5.59
2023-01-11T19:55:29.649Z,5.73
2023-01-11T19:57:59.282Z,5.40
2023-01-11T20:00:29.138Z,5.47
2023-01-11T20:03:05.240Z,5.89
2023-01-11T20:05:35.432Z,5.57
2023-01-11T20:08:05.559Z,5.52
2023-01-11T20:10:37.319Z,5.67
2023-01-11T20:13:06.996Z,5.52
2023-01-11T20:15:39.863Z,5.59
2023-01-11T20:18:10.174Z,5.73
2023-01-11T20:20:39.913Z,5.76
2023-01-11T20:23:09.941Z,5.70
2023-01-11T20:25:41.435Z,5.63
2023-01-11T20:28:11.387Z,5.17
2023-01-11T20:30:42.629Z,5.49
2023-01-11T20:33:12.037Z,5.16
2023-01-11T20:35:42.158Z,4.87
2023-01-11T20:38:12.552Z,5.46
2023-01-11T20:40:43.983Z,5.61
2023-01-11T20:43:15.490Z,5.42
2023-01-11T20:45:45.887Z,5.25
2023-01-11T20:48:15.973Z,5.36
2023-01-11T20:50:46.453Z,5.17
2023-01-11T20:53:16.807Z,5.41
2023-01-11T20:55:50.333Z,5.01
2023-01-11T20:58:19.798Z,5.05
2023-01-11T21:00:49.669Z,5.55
2023-01-11T21:03:20.809Z,5.64
2023-01-11T21:05:53.813Z,5.69
2023-01-11T21:08:23.901Z,5.68
2023-01-11T21:10:55.599Z,5.57
2023-01-11T21:13:25.458Z,5.63
2023-01-11T21:15:58.005Z,5.38
2023-01-11T21:18:27.525Z,5.15
2023-01-11T21:20:57.718Z,5.44
2023-01-11T21:23:27.699Z,5.11
2023-01-11T21:26:00.687Z,5.34
2023-01-11T21:28:30.459Z,5.20
2023-01-11T21:31:05.874Z,5.15
2023-01-11T21:33:37.429Z,5.31
2023-01-11T21:36:09.683Z,5.52
2023-01-11T21:38:39.605Z,5.65
2023-01-11T21:41:12.751Z,5.58
2023-01-11T21:43:43.773Z,5.49
2023-01-11T21:46:14.030Z,5.39
2023-01-11T21:48:43.693Z,5.65
2023-01-11T21:51:16.883Z,5.58
2023-01-11T21:53:47.559Z,5.84
2023-01-11T21:56:19.584Z,5.58
2023-01-11T21:58:50.592Z,5.55
2023-01-11T22:01:21.850Z,5.58
2023-01-11T22:03:51.855Z,5.63
2023-01-11T22:06:22.964Z,5.67
2023-01-11T22:08:52.709Z,5.44
2023-01-11T22:11:24.176Z,5.65
2023-01-11T22:13:53.729Z,5.68
2023-01-11T22:16:23.858Z,4.95
2023-01-11T22:18:53.655Z,5.34
2023-01-11T22:21:23.410Z,5.58
2023-01-11T22:23:56.556Z,5.59
2023-01-11T22:26:30.295Z,5.71
2023-01-11T22:29:18.710Z,5.59
2023-01-11T22:31:51.548Z,5.00
2023-01-11T22:34:22.475Z,5.08
2023-01-11T22:36:53.988Z,5.68
2023-01-11T22:39:24.448Z,5.09
2023-01-11T22:41:57.183Z,5.53
2023-01-11T22:44:26.939Z,5.35
2023-01-11T22:46:56.766Z,5.48
2023-01-11T22:49:27.486Z,5.66
2023-01-11T22:51:58.428Z,5.47
2023-01-11T22:54:28.857Z,5.66
2023-01-11T22:57:00.370Z,5.64
2023-01-11T22:59:31.743Z,5.38
2023-01-11T23:02:02.169Z,5.61
2023-01-11T23:04:33.775Z,5.54
2023-01-11T23:07:03.788Z,5.79
2023-01-11T23:09:33.496Z,5.71
2023-01-11T23:12:22.433Z,5.42
2023-01-11T23:14:53.012Z,5.48
2023-01-11T23:17:23.474Z,5.32
2023-01-11T23:19:54.536Z,5.29
2023-01-11T23:22:24.764Z,5.08
2023-01-11T23:24:54.795Z,4.93
2023-01-11T23:27:26.529Z,5.38
2023-01-11T23:29:57.258Z,5.54
2023-01-11T23:32:29.173Z,5.30
2023-01-11T23:34:59.128Z,5.51
2023-01-11T23:37:29.115Z,5.20
2023-01-11T23:39:59.333Z,5.52
2023-01-11T23:42:29.943Z,5.19
2023-01-11T23:44:59.754Z,4.95
2023-01-11T23:47:30.079Z,5.00
2023-01-11T23:50:02.236Z,5.38
2023-01-11T23:52:34.533Z,4.94
2023-01-11T23:55:05.104Z,5.26
2023-01-11T23:57:36.959Z,5.40
